Time,TemperatureF,DewpointF,PressureIn,WindDirection,WindDirectionDegrees,WindSpeedMPH,WindSpeedGustMPH,Humidity,HourlyPrecipIn,Conditions,Clouds,dailyrainin,SoftwareType,DateUTC
2013-09-01 00:01:00,70.8,69.0,29.80,SSW,211,0.0,0.0,94,0.00,,---,0.00,VWS V14.01,2013-09-01 04:01:00,
2013-09-01 00:06:00,70.8,69.0,29.80,SSW,210,0.0,0.0,94,0.00,,---,0.00,VWS V14.01,2013-09-01 04:06:00,
2013-09-01 00:11:00,70.8,69.3,29.80,SSW,210,0.0,0.0,95,0.00,,---,0.00,VWS V14.01,2013-09-01 04:11:00,
2013-09-01 00:16:00,70.8,69.3,29.80,SSW,210,0.0,0.0,95,0.00,,---,0.00,VWS V14.01,2013-09-01 04:16:00,
2013-09-01 00:21:00,70.8,69.3,29.81,SSW,210,0.0,0.0,95,0.00,,---,0.00,VWS V14.01,2013-09-01 04:21:00,
2013-09-01 00:26:00,70.8,69.3,29.80,SSW,211,0.0,0.0,95,0.00,,---,0.00,VWS V14.01,2013-09-01 04:26:00,
2013-09-01 00:31:00,70.9,69.4,29.80,SSW,210,0.0,0.0,95,0.00,,---,0.00,VWS V14.01,2013-09-01 04:31:00,
2013-09-01 00:36:00,70.8,69.3,29.80,SSW,211,0.0,0.0,95,0.00,,---,0.00,VWS V14.01,2013-09-01 04:36:00,
2013-09-01 00:41:00,70.8,69.3,29.80,SSW,211,0.0,0.0,95,0.00,,---,0.00,VWS V14.01,2013-09-01 04:41:00,
2013-09-01 00:46:00,70.8,69.3,29.80,SSW,211,0.0,0.0,95,0.00,,---,0.00,VWS V14.01,2013-09-01 04:46:00,
2013-09-01 00:51:00,70.8,69.3,29.80,SSW,211,0.0,0.0,95,0.00,,---,0.00,VWS V14.01,2013-09-01 04:51:00,
2013-09-01 00:56:00,70.7,69.2,29.80,SSW,211,0.0,0.0,95,0.00,,---,0.00,VWS V14.01,2013-09-01 04:56:00,
2013-09-01 01:01:00,70.7,69.2,29.80,SSW,211,0.0,0.0,95,0.00,,---,0.00,VWS V14.01,2013-09-01 05:01:00,
2013-09-01 01:06:00,70.6,69.1,29.79,SSW,211,0.0,0.0,95,0.00,,---,0.00,VWS V14.01,2013-09-01 05:06:00,
2013-09-01 01:11:00,70.5,69.0,29.79,SSW,211,0.0,0.0,95,0.00,,---,0.00,VWS V14.01,2013-09-01 05:11:00,
2013-09-01 01:16:00,70.4,68.9,29.79,SSW,211,0.0,0.0,95,0.00,,---,0.00,VWS V14.01,2013-09-01 05:16:00,
2013-09-01 01:22:00,70.4,68.9,29.79,SSW,211,0.0,0.0,95,0.00,,---,0.00,VWS V14.01,2013-09-01 05:22:00,
2013-09-01 01:27:00,70.3,68.8,29.78,SSW,211,0.0,0.0,95,0.00,,---,0.00,VWS V14.01,2013-09-01 05:27:00,
2013-09-01 01:32:00,70.2,68.7,29.78,SSW,211,0.0,0.0,95,0.00,,---,0.00,VWS V14.01,2013-09-01 05:32:00,
2013-09-01 01:37:00,70.1,68.6,29.78,SSW,211,0.0,0.0,95,0.00,,---,0.00,VWS V14.01,2013-09-01 05:37:00,
2013-09-01 01:42:00,70.1,68.6,29.78,SSW,211,0.0,0.0,95,0.00,,---,0.00,VWS V14.01,2013-09-01 05:42:00,
2013-09-01 01:47:00,70.0,68.5,29.78,SSW,211,0.0,0.0,95,0.00,,---,0.00,VWS V14.01,2013-09-01 05:47:00,
2013-09-01 01:52:00,69.9,68.4,29.77,SSW,211,0.0,0.0,95,0.00,,---,0.00,VWS V14.01,2013-09-01 05:52:00,
2013-09-01 01:57:00,69.8,68.3,29.77,SSW,211,0.0,0.0,95,0.00,,---,0.00,VWS V14.01,2013-09-01 05:57:00,
2013-09-01 02:02:00,69.7,68.2,29.77,SSW,211,0.0,0.0,95,0.00,,---,0.00,VWS V14.01,2013-09-01 06:02:00,
2013-09-01 02:07:00,69.7,68.2,29.77,SSW,211,0.0,0.0,95,0.00,,---,0.00,VWS V14.01,2013-09-01 06:07:00,
2013-09-01 02:12:00,69.6,68.1,29.77,SSW,211,0.0,0.0,95,0.00,,---,0.00,VWS V14.01,2013-09-01 06:12:00,
2013-09-01 02:17:00,69.5,68.0,29.77,SSW,211,0.0,0.0,95,0.00,,---,0.00,VWS V14.01,2013-09-01 06:17:00,
2013-09-01 02:22:00,69.4,67.9,29.76,SSW,211,0.0,0.0,95,0.00,,---,0.00,VWS V14.01,2013-09-01 06:22:00,
2013-09-01 02:27:00,69.3,67.8,29.76,SSW,211,0.0,0.0,95,0.00,,---,0.00,VWS V14.01,2013-09-01 06:27:00,
2013-09-01 02:32:00,69.2,67.7,29.76,SSW,211,0.0,0.0,95,0.00,,---,0.00,VWS V14.01,2013-09-01 06:32:00,
2013-09-01 02:37:00,69.1,67.6,29.76,SSW,211,0.0,0.0,95,0.00,,---,0.00,VWS V14.01,2013-09-01 06:37:00,
2013-09-01 02:42:00,69.1,67.6,29.76,SSW,211,0.0,0.0,95,0.00,,---,0.00,VWS V14.01,2013-09-01 06:42:00,
2013-09-01 02:47:00,69.0,67.5,29.76,SSW,211,0.0,0.0,95,0.00,,---,0.00,VWS V14.01,2013-09-01 06:47:00,
2013-09-01 02:52:00,69.0,67.5,29.76,SSW,211,0.0,0.0,95,0.00,,---,0.00,VWS V14.01,2013-09-01 06:52:00,
2013-09-01 02:57:00,68.9,67.4,29.76,SSW,211,0.0,0.0,95,0.00,,---,0.00,VWS V14.01,2013-09-01 06:57:00,
2013-09-01 03:02:00,68.8,67.3,29.76,SSW,211,0.0,0.0,95,0.00,,---,0.00,VWS V14.01,2013-09-01 07:02:00,
2013-09-01 03:07:00,68.8,67.3,29.76,SSW,211,0.0,0.0,95,0.00,,---,0.00,VWS V14.01,2013-09-01 07:07:00,
2013-09-01 03:12:00,68.6,67.1,29.75,SSW,211,0.0,0.0,95,0.00,,---,0.00,VWS V14.01,2013-09-01 07:12:00,
2013-09-01 03:17:00,68.6,67.1,29.75,SSW,211,0.0,0.0,95,0.00,,---,0.00,VWS V14.01,2013-09-01 07:17:00,
2013-09-01 03:22:00,68.5,67.0,29.75,SSW,211,0.0,0.0,95,0.00,,---,0.00,VWS V14.01,2013-09-01 07:22:00,
2013-09-01 03:27:00,68.5,67.0,29.75,SSW,211,0.0,0.0,95,0.00,,---,0.00,VWS V14.01,2013-09-01 07:27:00,
2013-09-01 03:32:00,68.4,66.9,29.75,SSW,211,0.0,0.0,95,0.00,,---,0.00,VWS V14.01,2013-09-01 07:32:00,
2013-09-01 03:37:00,68.4,67.2,29.75,SSW,211,0.0,0.0,96,0.00,,---,0.00,VWS V14.01,2013-09-01 07:37:00,
2013-09-01 03:42:00,68.3,67.1,29.75,SSW,211,0.0,0.0,96,0.00,,---,0.00,VWS V14.01,2013-09-01 07:42:00,
2013-09-01 03:47:00,68.3,67.1,29.76,SSW,211,0.0,0.0,96,0.00,,---,0.00,VWS V14.01,2013-09-01 07:47:00,
2013-09-01 03:52:00,68.2,67.0,29.76,SSW,211,0.0,0.0,96,0.00,,---,0.00,VWS V14.01,2013-09-01 07:52:00,
2013-09-01 03:57:00,68.2,66.7,29.76,SSW,211,0.0,0.0,95,0.00,,---,0.00,VWS V14.01,2013-09-01 07:57:00,
2013-09-01 04:02:00,68.1,66.9,29.76,SSW,211,0.0,0.0,96,0.00,,---,0.00,VWS V14.01,2013-09-01 08:02:00,
2013-09-01 04:07:00,68.1,66.9,29.76,SSW,211,0.0,0.0,96,0.00,,---,0.00,VWS V14.01,2013-09-01 08:07:00,
2013-09-01 04:12:00,68.1,66.9,29.76,SSW,211,0.0,0.0,96,0.00,,---,0.00,VWS V14.01,2013-09-01 08:12:00,
2013-09-01 04:17:00,68.0,66.8,29.76,SSW,211,0.0,0.0,96,0.00,,---,0.00,VWS V14.01,2013-09-01 08:17:00,
2013-09-01 04:22:00,68.0,66.8,29.77,SSW,211,0.0,0.0,96,0.00,,---,0.00,VWS V14.01,2013-09-01 08:22:00,
2013-09-01 04:27:00,67.9,66.7,29.77,SSW,211,0.0,0.0,96,0.00,,---,0.00,VWS V14.01,2013-09-01 08:27:00,
2013-09-01 04:32:00,67.8,66.6,29.77,SSW,211,0.0,0.0,96,0.00,,---,0.00,VWS V14.01,2013-09-01 08:32:00,
2013-09-01 04:37:00,67.8,66.6,29.77,SSW,211,0.0,0.0,96,0.00,,---,0.00,VWS V14.01,2013-09-01 08:37:00,
2013-09-01 04:42:00,67.7,66.5,29.77,SSW,211,0.0,0.0,96,0.00,,---,0.00,VWS V14.01,2013-09-01 08:42:00,
2013-09-01 04:47:00,67.6,66.4,29.77,SSW,211,0.0,0.0,96,0.00,,---,0.00,VWS V14.01,2013-09-01 08:47:00,
2013-09-01 04:52:00,67.6,66.4,29.76,SSW,211,0.0,0.0,96,0.00,,---,0.00,VWS V14.01,2013-09-01 08:52:00,
2013-09-01 04:57:00,67.5,66.3,29.77,SSW,211,0.0,0.0,96,0.00,,---,0.00,VWS V14.01,2013-09-01 08:57:00,
2013-09-01 05:02:00,67.4,66.2,29.77,SSW,211,0.0,0.0,96,0.00,,---,0.00,VWS V14.01,2013-09-01 09:02:00,
2013-09-01 05:07:00,67.4,66.2,29.77,SSW,211,0.0,0.0,96,0.00,,---,0.00,VWS V14.01,2013-09-01 09:07:00,
2013-09-01 05:12:00,67.3,66.1,29.77,SSW,211,0.0,0.0,96,0.00,,---,0.00,VWS V14.01,2013-09-01 09:12:00,
2013-09-01 05:17:00,67.2,66.0,29.77,SSW,211,0.0,0.0,96,0.00,,---,0.00,VWS V14.01,2013-09-01 09:17:00,
2013-09-01 05:22:00,67.2,66.0,29.77,SSW,211,0.0,0.0,96,0.00,,---,0.00,VWS V14.01,2013-09-01 09:22:00,
2013-09-01 05:27:00,67.1,65.9,29.77,SSW,211,0.0,0.0,96,0.00,,---,0.00,VWS V14.01,2013-09-01 09:27:00,
2013-09-01 05:32:00,67.1,65.9,29.77,SSW,211,0.0,0.0,96,0.00,,---,0.00,VWS V14.01,2013-09-01 09:32:00,
2013-09-01 05:37:00,67.1,65.9,29.77,SSW,211,0.0,0.0,96,0.00,,---,0.00,VWS V14.01,2013-09-01 09:37:00,
2013-09-01 05:42:00,67.1,65.9,29.77,SSW,211,0.0,0.0,96,0.00,,---,0.00,VWS V14.01,2013-09-01 09:42:00,
2013-09-01 05:47:00,67.2,66.0,29.77,SSW,211,0.0,0.0,96,0.00,,---,0.00,VWS V14.01,2013-09-01 09:47:00,
2013-09-01 05:52:00,67.2,66.0,29.77,SSW,211,0.0,0.0,96,0.00,,---,0.00,VWS V14.01,2013-09-01 09:52:00,
2013-09-01 05:57:00,67.2,66.0,29.77,SSW,211,0.0,0.0,96,0.00,,---,0.00,VWS V14.01,2013-09-01 09:57:00,
2013-09-01 06:02:00,67.3,66.1,29.78,SSW,211,0.0,0.0,96,0.00,,---,0.00,VWS V14.01,2013-09-01 10:02:00,
2013-09-01 06:07:00,67.4,66.2,29.78,SSW,211,0.0,0.0,96,0.00,,---,0.00,VWS V14.01,2013-09-01 10:07:00,
2013-09-01 06:12:00,67.5,66.3,29.78,SSW,211,0.0,0.0,96,0.00,,---,0.00,VWS V14.01,2013-09-01 10:12:00,
2013-09-01 06:17:00,67.5,66.3,29.78,SSW,211,0.0,0.0,96,0.00,,---,0.00,VWS V14.01,2013-09-01 10:17:00,
2013-09-01 06:22:00,67.6,66.7,29.78,SSW,211,0.0,0.0,97,0.00,,---,0.00,VWS V14.01,2013-09-01 10:22:00,
2013-09-01 06:27:00,67.7,66.8,29.78,SSW,211,0.0,0.0,97,0.00,,---,0.00,VWS V14.01,2013-09-01 10:27:00,
2013-09-01 06:32:00,67.8,66.9,29.78,SSW,211,0.0,0.0,97,0.00,,---,0.00,VWS V14.01,2013-09-01 10:32:00,
2013-09-01 06:37:00,67.9,67.0,29.78,SSW,211,0.0,0.0,97,0.00,,---,0.00,VWS V14.01,2013-09-01 10:37:00,
2013-09-01 06:42:00,67.9,67.0,29.78,SSW,211,0.0,0.0,97,0.00,,---,0.00,VWS V14.01,2013-09-01 10:42:00,
2013-09-01 06:47:00,67.9,67.0,29.78,SSW,211,0.0,0.0,97,0.00,,---,0.00,VWS V14.01,2013-09-01 10:47:00,
2013-09-01 06:52:00,68.0,67.1,29.78,SSW,211,0.0,0.0,97,0.00,,---,0.00,VWS V14.01,2013-09-01 10:52:00,
2013-09-01 06:57:00,68.0,67.1,29.78,SSW,211,0.0,0.0,97,0.00,,---,0.00,VWS V14.01,2013-09-01 10:57:00,
2013-09-01 07:02:00,68.1,67.2,29.78,SSW,211,0.0,0.0,97,0.00,,---,0.00,VWS V14.01,2013-09-01 11:02:00,
2013-09-01 07:07:00,68.1,67.2,29.78,SSW,211,0.0,0.0,97,0.00,,---,0.00,VWS V14.01,2013-09-01 11:07:00,
2013-09-01 07:12:00,68.1,67.2,29.78,SSW,211,0.0,0.0,97,0.00,,---,0.00,VWS V14.01,2013-09-01 11:12:00,
2013-09-01 07:17:00,68.2,67.3,29.78,SSW,211,0.0,0.0,97,0.00,,---,0.00,VWS V14.01,2013-09-01 11:17:00,
2013-09-01 07:22:00,68.2,67.3,29.78,SSW,211,0.0,0.0,97,0.00,,---,0.00,VWS V14.01,2013-09-01 11:22:00,
2013-09-01 07:27:00,68.2,67.3,29.78,SSW,211,0.0,0.0,97,0.00,,---,0.00,VWS V14.01,2013-09-01 11:27:00,
2013-09-01 07:32:00,68.3,67.4,29.78,SSW,211,0.0,0.0,97,0.00,,---,0.00,VWS V14.01,2013-09-01 11:32:00,
2013-09-01 07:37:00,68.5,67.9,29.78,SSW,211,0.0,0.0,98,0.00,,---,0.00,VWS V14.01,2013-09-01 11:37:00,
2013-09-01 07:42:00,68.5,67.6,29.78,SSW,211,0.0,0.0,97,0.00,,---,0.00,VWS V14.01,2013-09-01 11:42:00,
2013-09-01 07:47:00,68.6,67.7,29.79,SSW,211,0.0,0.0,97,0.00,,---,0.00,VWS V14.01,2013-09-01 11:47:00,
2013-09-01 07:52:00,68.7,68.1,29.79,SSW,211,0.0,0.0,98,0.00,,---,0.00,VWS V14.01,2013-09-01 11:52:00,
2013-09-01 07:57:00,68.8,67.9,29.79,SSW,211,0.0,0.0,97,0.00,,---,0.00,VWS V14.01,2013-09-01 11:57:00,
2013-09-01 08:02:00,68.9,68.0,29.79,SSW,211,0.0,0.0,97,0.00,,---,0.00,VWS V14.01,2013-09-01 12:02:00,
2013-09-01 08:07:00,69.0,68.1,29.79,SSW,211,0.0,0.0,97,0.00,,---,0.00,VWS V14.01,2013-09-01 12:07:00,
2013-09-01 08:12:00,69.1,68.5,29.79,SSW,211,0.0,0.0,98,0.00,,---,0.00,VWS V14.01,2013-09-01 12:12:00,
2013-09-01 08:17:00,69.2,68.6,29.80,SSW,211,0.0,0.0,98,0.00,,---,0.00,VWS V14.01,2013-09-01 12:17:00,
2013-09-01 08:22:00,69.4,68.8,29.80,SSW,210,0.0,0.0,98,0.00,,---,0.00,VWS V14.01,2013-09-01 12:22:00,
2013-09-01 08:27:00,69.5,68.9,29.80,SSW,210,0.0,0.0,98,0.00,,---,0.00,VWS V14.01,2013-09-01 12:27:00,
2013-09-01 08:32:00,69.7,69.1,29.80,SSW,210,0.0,0.0,98,0.00,,---,0.00,VWS V14.01,2013-09-01 12:32:00,
2013-09-01 08:37:00,69.8,69.2,29.80,SSW,211,0.0,0.0,98,0.00,,---,0.00,VWS V14.01,2013-09-01 12:37:00,
2013-09-01 08:42:00,69.9,69.3,29.80,SSW,211,0.0,0.0,98,0.00,,---,0.00,VWS V14.01,2013-09-01 12:42:00,
2013-09-01 08:47:00,70.1,69.5,29.80,SSW,211,0.0,1.0,98,0.00,,---,0.00,VWS V14.01,2013-09-01 12:47:00,
2013-09-01 08:52:00,70.2,69.6,29.80,SSW,211,0.0,1.0,98,0.00,,---,0.00,VWS V14.01,2013-09-01 12:52:00,
2013-09-01 08:57:00,70.4,69.8,29.80,SSW,211,0.0,0.0,98,0.00,,---,0.00,VWS V14.01,2013-09-01 12:57:00,
2013-09-01 09:02:00,70.5,69.9,29.80,SSW,211,0.0,0.0,98,0.00,,---,0.00,VWS V14.01,2013-09-01 13:02:00,
2013-09-01 09:07:00,70.6,70.0,29.80,SSW,210,0.0,1.0,98,0.00,,---,0.00,VWS V14.01,2013-09-01 13:07:00,
2013-09-01 09:12:00,70.8,70.2,29.80,ESE,122,0.0,4.0,98,0.00,,---,0.00,VWS V14.01,2013-09-01 13:12:00,
2013-09-01 09:17:00,70.8,70.2,29.80,ENE,61,0.0,1.0,98,0.00,,---,0.00,VWS V14.01,2013-09-01 13:17:00,
2013-09-01 09:22:00,70.9,70.3,29.80,SE,131,0.0,1.0,98,0.00,,---,0.00,VWS V14.01,2013-09-01 13:22:00,
2013-09-01 09:27:00,70.9,70.3,29.80,SSE,162,0.0,3.0,98,0.00,,---,0.00,VWS V14.01,2013-09-01 13:27:00,
2013-09-01 09:32:00,71.1,70.5,29.80,SSE,158,0.0,2.0,98,0.00,,---,0.00,VWS V14.01,2013-09-01 13:32:00,
2013-09-01 09:37:00,71.1,70.5,29.80,SE,137,0.0,3.0,98,0.00,,---,0.00,VWS V14.01,2013-09-01 13:37:00,
2013-09-01 09:42:00,71.2,70.6,29.81,SE,146,0.0,1.0,98,0.00,,---,0.00,VWS V14.01,2013-09-01 13:42:00,
2013-09-01 09:47:00,71.3,70.7,29.80,ESE,105,0.0,2.0,98,0.00,,---,0.00,VWS V14.01,2013-09-01 13:47:00,
2013-09-01 09:52:00,71.4,70.8,29.80,SSE,157,1.0,2.0,98,0.00,,---,0.00,VWS V14.01,2013-09-01 13:52:00,
2013-09-01 09:57:00,71.5,70.9,29.80,SSE,153,0.0,1.0,98,0.00,,---,0.00,VWS V14.01,2013-09-01 13:57:00,
2013-09-01 10:02:00,71.6,71.0,29.80,ESE,105,0.0,1.0,98,0.00,,---,0.00,VWS V14.01,2013-09-01 14:02:00,
2013-09-01 10:07:00,71.8,71.2,29.80,South,182,1.0,2.0,98,0.00,,---,0.00,VWS V14.01,2013-09-01 14:07:00,
2013-09-01 10:12:00,71.9,71.3,29.80,SE,127,0.0,0.0,98,0.00,,---,0.00,VWS V14.01,2013-09-01 14:12:00,
2013-09-01 10:17:00,72.0,71.4,29.80,ESE,111,2.0,4.0,98,0.00,,---,0.00,VWS V14.01,2013-09-01 14:17:00,
2013-09-01 10:22:00,72.0,71.4,29.80,SE,128,0.0,1.0,98,0.00,,---,0.00,VWS V14.01,2013-09-01 14:22:00,
2013-09-01 10:27:00,72.1,71.5,29.80,South,184,0.0,3.0,98,0.00,,---,0.00,VWS V14.01,2013-09-01 14:27:00,
2013-09-01 10:32:00,72.1,71.5,29.80,SE,138,0.0,3.0,98,0.00,,---,0.00,VWS V14.01,2013-09-01 14:32:00,
2013-09-01 10:37:00,72.1,71.5,29.80,SE,138,3.0,3.0,98,0.00,,---,0.00,VWS V14.01,2013-09-01 14:37:00,
2013-09-01 10:42:00,72.1,71.2,29.80,SSE,167,0.0,4.0,97,0.00,,---,0.00,VWS V14.01,2013-09-01 14:42:00,
2013-09-01 10:47:00,72.2,71.3,29.80,ESE,116,0.0,1.0,97,0.00,,---,0.00,VWS V14.01,2013-09-01 14:47:00,
2013-09-01 10:52:00,72.4,71.8,29.80,SSE,154,0.0,2.0,98,0.00,,---,0.00,VWS V14.01,2013-09-01 14:52:00,
2013-09-01 10:57:00,72.6,72.0,29.80,SSE,154,0.0,1.0,98,0.00,,---,0.00,VWS V14.01,2013-09-01 14:57:00,
2013-09-01 11:02:00,72.7,71.8,29.80,SSE,151,0.0,2.0,97,0.00,,---,0.00,VWS V14.01,2013-09-01 15:02:00,
2013-09-01 11:08:00,72.8,71.9,29.80,SE,125,0.0,2.0,97,0.00,,---,0.00,VWS V14.01,2013-09-01 15:08:00,
2013-09-01 11:13:00,73.0,72.1,29.80,South,169,0.0,1.0,97,0.00,,---,0.00,VWS V14.01,2013-09-01 15:13:00,
2013-09-01 11:18:00,73.0,72.1,29.80,South,169,0.0,1.0,97,0.00,,---,0.00,VWS V14.01,2013-09-01 15:18:00,
2013-09-01 11:23:00,73.2,72.3,29.80,SSE,151,0.0,1.0,97,0.00,,---,0.00,VWS V14.01,2013-09-01 15:23:00,
2013-09-01 11:28:00,73.3,72.4,29.80,SSE,147,0.0,1.0,97,0.00,,---,0.00,VWS V14.01,2013-09-01 15:28:00,
2013-09-01 11:33:00,73.5,72.6,29.80,SE,146,0.0,2.0,97,0.00,,---,0.00,VWS V14.01,2013-09-01 15:33:00,
2013-09-01 11:38:00,73.5,72.3,29.80,South,173,3.0,3.0,96,0.00,,---,0.00,VWS V14.01,2013-09-01 15:38:00,
2013-09-01 11:43:00,73.6,72.4,29.80,SSE,158,0.0,0.0,96,0.00,,---,0.00,VWS V14.01,2013-09-01 15:43:00,
2013-09-01 11:48:00,73.8,72.6,29.80,SSE,158,1.0,1.0,96,0.00,,---,0.00,VWS V14.01,2013-09-01 15:48:00,
2013-09-01 11:53:00,73.8,72.6,29.80,SE,137,0.0,4.0,96,0.00,,---,0.00,VWS V14.01,2013-09-01 15:53:00,
2013-09-01 11:58:00,73.8,72.6,29.81,SSE,155,0.0,1.0,96,0.00,,---,0.00,VWS V14.01,2013-09-01 15:58:00,
2013-09-01 12:03:00,73.9,72.4,29.81,SSE,168,1.0,2.0,95,0.00,,---,0.00,VWS V14.01,2013-09-01 16:03:00,
2013-09-01 12:08:00,73.9,72.4,29.81,ENE,63,0.0,2.0,95,0.00,,---,0.00,VWS V14.01,2013-09-01 16:08:00,
2013-09-01 12:13:00,73.8,72.3,29.81,East,84,0.0,0.0,95,0.00,,---,0.00,VWS V14.01,2013-09-01 16:13:00,
2013-09-01 12:18:00,73.8,72.0,29.81,SE,142,0.0,2.0,94,0.00,,---,0.00,VWS V14.01,2013-09-01 16:18:00,
2013-09-01 12:23:00,73.8,72.0,29.81,SSE,163,0.0,2.0,94,0.00,,---,0.00,VWS V14.01,2013-09-01 16:23:00,
2013-09-01 12:28:00,73.8,72.0,29.80,ESE,119,0.0,3.0,94,0.00,,---,0.00,VWS V14.01,2013-09-01 16:28:00,
2013-09-01 12:33:00,73.8,72.0,29.80,SSE,156,0.0,2.0,94,0.00,,---,0.00,VWS V14.01,2013-09-01 16:33:00,
2013-09-01 12:38:00,73.8,72.0,29.80,SE,138,0.0,1.0,94,0.00,,---,0.00,VWS V14.01,2013-09-01 16:38:00,
2013-09-01 12:43:00,74.0,72.2,29.79,SSW,205,3.0,3.0,94,0.00,,---,0.00,VWS V14.01,2013-09-01 16:43:00,
2013-09-01 12:48:00,74.0,71.8,29.79,ESE,122,0.0,2.0,93,0.00,,---,0.00,VWS V14.01,2013-09-01 16:48:00,
2013-09-01 12:53:00,74.0,71.8,29.79,SW,235,0.0,3.0,93,0.00,,---,0.00,VWS V14.01,2013-09-01 16:53:00,
2013-09-01 12:58:00,74.1,71.9,29.79,South,182,0.0,4.0,93,0.00,,---,0.00,VWS V14.01,2013-09-01 16:58:00,
2013-09-01 13:03:00,74.2,72.1,29.78,ESE,114,0.0,3.0,93,0.00,,---,0.00,VWS V14.01,2013-09-01 17:03:00,
2013-09-01 13:08:00,74.2,72.1,29.79,South,177,0.0,3.0,93,0.00,,---,0.00,VWS V14.01,2013-09-01 17:08:00,
2013-09-01 13:13:00,74.3,72.2,29.79,SE,144,0.0,1.0,93,0.00,,---,0.00,VWS V14.01,2013-09-01 17:13:00,
2013-09-01 13:18:00,74.4,72.2,29.79,South,184,0.0,2.0,93,0.00,,---,0.00,VWS V14.01,2013-09-01 17:18:00,
2013-09-01 13:23:00,74.4,72.2,29.79,ESE,121,0.0,4.0,93,0.00,,---,0.00,VWS V14.01,2013-09-01 17:23:00,
2013-09-01 13:28:00,74.4,72.2,29.78,SSE,155,0.0,2.0,93,0.00,,---,0.00,VWS V14.01,2013-09-01 17:28:00,
2013-09-01 13:33:00,74.4,71.9,29.78,SSE,165,0.0,4.0,92,0.00,,---,0.00,VWS V14.01,2013-09-01 17:33:00,
2013-09-01 13:38:00,74.5,72.0,29.78,SSE,165,0.0,0.0,92,0.00,,---,0.00,VWS V14.01,2013-09-01 17:38:00,
2013-09-01 13:43:00,74.6,72.1,29.78,SSE,158,0.0,5.0,92,0.00,,---,0.00,VWS V14.01,2013-09-01 17:43:00,
2013-09-01 13:48:00,74.6,72.1,29.78,East,82,0.0,1.0,92,0.00,,---,0.00,VWS V14.01,2013-09-01 17:48:00,
2013-09-01 13:53:00,74.5,72.0,29.78,SE,140,0.0,2.0,92,0.00,,---,0.00,VWS V14.01,2013-09-01 17:53:00,
2013-09-01 13:58:00,74.5,72.0,29.79,ESE,113,0.0,2.0,92,0.00,,---,0.00,VWS V14.01,2013-09-01 17:58:00,
2013-09-01 14:03:00,74.5,72.0,29.79,NE,42,0.0,2.0,92,0.00,,---,0.00,VWS V14.01,2013-09-01 18:03:00,
2013-09-01 14:08:00,74.4,71.9,29.80,SSW,212,0.0,2.0,92,0.00,,---,0.00,VWS V14.01,2013-09-01 18:08:00,
2013-09-01 14:13:00,74.4,71.9,29.79,SSE,155,0.0,3.0,92,0.00,,---,0.00,VWS V14.01,2013-09-01 18:13:00,
2013-09-01 14:18:00,74.4,71.9,29.79,SSE,157,1.0,3.0,92,0.00,,---,0.00,VWS V14.01,2013-09-01 18:18:00,
2013-09-01 14:23:00,74.4,71.9,29.79,SSE,161,0.0,2.0,92,0.00,,---,0.00,VWS V14.01,2013-09-01 18:23:00,
2013-09-01 14:28:00,74.4,71.6,29.79,SE,134,0.0,3.0,91,0.00,,---,0.00,VWS V14.01,2013-09-01 18:28:00,
2013-09-01 14:33:00,74.4,71.6,29.79,South,177,0.0,2.0,91,0.00,,---,0.00,VWS V14.01,2013-09-01 18:33:00,
2013-09-01 14:38:00,74.4,71.6,29.79,South,179,0.0,3.0,91,0.00,,---,0.00,VWS V14.01,2013-09-01 18:38:00,
2013-09-01 14:43:00,74.5,72.0,29.78,NNW,333,0.0,1.0,92,0.00,,---,0.00,VWS V14.01,2013-09-01 18:43:00,
2013-09-01 14:48:00,74.7,72.2,29.78,NNW,333,0.0,0.0,92,0.00,,---,0.00,VWS V14.01,2013-09-01 18:48:00,
2013-09-01 14:53:00,74.9,72.4,29.78,SSE,161,0.0,3.0,92,0.00,,---,0.00,VWS V14.01,2013-09-01 18:53:00,
2013-09-01 14:58:00,75.0,72.5,29.78,SSE,148,0.0,4.0,92,0.00,,---,0.00,VWS V14.01,2013-09-01 18:58:00,
2013-09-01 15:03:00,75.3,72.8,29.78,East,80,0.0,1.0,92,0.00,,---,0.00,VWS V14.01,2013-09-01 19:03:00,
2013-09-01 15:08:00,75.5,73.0,29.78,NW,325,0.0,1.0,92,0.00,,---,0.00,VWS V14.01,2013-09-01 19:08:00,
2013-09-01 15:13:00,75.7,73.2,29.78,ESE,113,0.0,1.0,92,0.00,,---,0.00,VWS V14.01,2013-09-01 19:13:00,
2013-09-01 15:18:00,75.9,73.1,29.77,NW,319,0.0,3.0,91,0.00,,---,0.00,VWS V14.01,2013-09-01 19:18:00,
2013-09-01 15:23:00,76.2,73.4,29.77,SSE,156,0.0,2.0,91,0.00,,---,0.00,VWS V14.01,2013-09-01 19:23:00,
2013-09-01 15:28:00,76.4,73.2,29.77,SW,230,0.0,1.0,90,0.00,,---,0.00,VWS V14.01,2013-09-01 19:28:00,
2013-09-01 15:33:00,76.7,73.6,29.77,SW,230,0.0,1.0,90,0.00,,---,0.00,VWS V14.01,2013-09-01 19:33:00,
2013-09-01 15:38:00,77.2,74.0,29.77,SSW,207,0.0,1.0,90,0.00,,---,0.00,VWS V14.01,2013-09-01 19:38:00,
2013-09-01 15:43:00,77.9,74.7,29.77,SE,140,0.0,2.0,90,0.00,,---,0.00,VWS V14.01,2013-09-01 19:43:00,
2013-09-01 15:48:00,78.5,74.7,29.77,East,92,3.0,5.0,88,0.00,,---,0.00,VWS V14.01,2013-09-01 19:48:00,
2013-09-01 15:53:00,79.5,75.3,29.77,WSW,253,2.0,4.0,87,0.00,,---,0.00,VWS V14.01,2013-09-01 19:53:00,
2013-09-01 15:58:00,80.2,74.6,29.77,SE,125,1.0,4.0,83,0.00,,---,0.00,VWS V14.01,2013-09-01 19:58:00,
2013-09-01 16:03:00,81.0,75.3,29.76,NW,309,1.0,5.0,83,0.00,,---,0.00,VWS V14.01,2013-09-01 20:03:00,
2013-09-01 16:08:00,81.8,75.4,29.77,West,265,0.0,4.0,81,0.00,,---,0.00,VWS V14.01,2013-09-01 20:08:00,
2013-09-01 16:13:00,82.4,75.2,29.77,West,265,0.0,0.0,79,0.00,,---,0.00,VWS V14.01,2013-09-01 20:13:00,
2013-09-01 16:18:00,83.1,75.2,29.76,SE,143,3.0,4.0,77,0.00,,---,0.00,VWS V14.01,2013-09-01 20:18:00,
2013-09-01 16:23:00,83.6,75.2,29.76,ENE,76,0.0,3.0,76,0.00,,---,0.00,VWS V14.01,2013-09-01 20:23:00,
2013-09-01 16:28:00,84.0,75.2,29.77,SSE,161,3.0,5.0,75,0.00,,---,0.00,VWS V14.01,2013-09-01 20:28:00,
2013-09-01 16:33:00,84.2,75.0,29.76,SE,146,0.0,2.0,74,0.00,,---,0.00,VWS V14.01,2013-09-01 20:33:00,
2013-09-01 16:38:00,84.2,75.0,29.76,SE,144,0.0,2.0,74,0.00,,---,0.00,VWS V14.01,2013-09-01 20:38:00,
2013-09-01 16:43:00,84.3,75.5,29.76,ENE,69,0.0,2.0,75,0.00,,---,0.00,VWS V14.01,2013-09-01 20:43:00,
2013-09-01 16:48:00,84.3,75.1,29.75,SSE,162,0.0,3.0,74,0.00,,---,0.00,VWS V14.01,2013-09-01 20:48:00,
2013-09-01 16:53:00,84.3,74.7,29.75,East,93,0.0,4.0,73,0.00,,---,0.00,VWS V14.01,2013-09-01 20:53:00,
2013-09-01 16:58:00,84.3,75.1,29.75,SSE,152,0.0,4.0,74,0.00,,---,0.00,VWS V14.01,2013-09-01 20:58:00,
2013-09-01 17:03:00,84.0,74.0,29.75,SSE,161,0.0,3.0,72,0.00,,---,0.00,VWS V14.01,2013-09-01 21:03:00,
2013-09-01 17:08:00,83.7,74.1,29.75,South,178,0.0,4.0,73,0.00,,---,0.00,VWS V14.01,2013-09-01 21:08:00,
2013-09-01 17:13:00,83.4,74.2,29.75,South,178,0.0,0.0,74,0.00,,---,0.00,VWS V14.01,2013-09-01 21:13:00,
2013-09-01 17:18:00,82.9,74.9,29.75,South,178,0.0,0.0,77,0.00,,---,0.00,VWS V14.01,2013-09-01 21:18:00,
2013-09-01 17:23:00,82.5,74.9,29.74,South,178,0.0,0.0,78,0.00,,---,0.00,VWS V14.01,2013-09-01 21:23:00,
2013-09-01 17:28:00,82.1,74.9,29.74,South,178,0.0,0.0,79,0.00,,---,0.00,VWS V14.01,2013-09-01 21:28:00,
2013-09-01 17:33:00,81.8,75.0,29.74,South,178,0.0,0.0,80,0.00,,---,0.00,VWS V14.01,2013-09-01 21:33:00,
2013-09-01 17:38:00,81.5,75.1,29.74,South,178,0.0,0.0,81,0.00,,---,0.00,VWS V14.01,2013-09-01 21:38:00,
2013-09-01 17:43:00,81.2,74.4,29.74,South,178,0.0,0.0,80,0.00,,---,0.00,VWS V14.01,2013-09-01 21:43:00,
2013-09-01 17:48:00,81.1,74.0,29.74,South,178,0.0,1.0,79,0.00,,---,0.00,VWS V14.01,2013-09-01 21:48:00,
2013-09-01 17:53:00,81.1,73.6,29.74,South,178,0.0,0.0,78,0.00,,---,0.00,VWS V14.01,2013-09-01 21:53:00,
2013-09-01 17:58:00,81.1,74.0,29.74,South,178,0.0,0.0,79,0.00,,---,0.00,VWS V14.01,2013-09-01 21:58:00,
2013-09-01 18:03:00,81.0,74.2,29.73,South,178,0.0,0.0,80,0.00,,---,0.00,VWS V14.01,2013-09-01 22:03:00,
2013-09-01 18:08:00,80.9,73.8,29.74,South,178,0.0,0.0,79,0.00,,---,0.00,VWS V14.01,2013-09-01 22:08:00,
2013-09-01 18:13:00,80.9,74.2,29.73,South,178,0.0,1.0,80,0.00,,---,0.00,VWS V14.01,2013-09-01 22:13:00,
2013-09-01 18:18:00,80.7,74.0,29.74,South,170,0.0,0.0,80,0.00,,---,0.00,VWS V14.01,2013-09-01 22:18:00,
2013-09-01 18:23:00,80.5,73.8,29.74,South,170,0.0,0.0,80,0.00,,---,0.00,VWS V14.01,2013-09-01 22:23:00,
2013-09-01 18:28:00,80.3,73.9,29.74,South,170,0.0,0.0,81,0.00,,---,0.00,VWS V14.01,2013-09-01 22:28:00,
2013-09-01 18:33:00,80.1,73.8,29.74,South,170,0.0,0.0,81,0.00,,---,0.00,VWS V14.01,2013-09-01 22:33:00,
2013-09-01 18:38:00,79.8,73.4,29.74,South,170,0.0,0.0,81,0.00,,---,0.00,VWS V14.01,2013-09-01 22:38:00,
2013-09-01 18:43:00,79.6,73.6,29.74,South,170,0.0,0.0,82,0.00,,---,0.00,VWS V14.01,2013-09-01 22:43:00,
2013-09-01 18:48:00,79.4,73.8,29.74,South,170,0.0,0.0,83,0.00,,---,0.00,VWS V14.01,2013-09-01 22:48:00,
2013-09-01 18:53:00,79.1,73.8,29.74,South,170,0.0,0.0,84,0.00,,---,0.00,VWS V14.01,2013-09-01 22:53:00,
2013-09-01 18:58:00,78.8,73.6,29.74,South,170,0.0,0.0,84,0.00,,---,0.00,VWS V14.01,2013-09-01 22:58:00,
2013-09-01 19:03:00,78.5,73.6,29.74,South,170,0.0,0.0,85,0.00,,---,0.00,VWS V14.01,2013-09-01 23:03:00,
2013-09-01 19:08:00,78.2,73.7,29.74,South,170,0.0,0.0,86,0.00,,---,0.00,VWS V14.01,2013-09-01 23:08:00,
2013-09-01 19:12:00,78.0,73.5,29.74,South,170,0.0,0.0,86,0.00,,---,0.00,VWS V14.01,2013-09-01 23:12:00,
2013-09-01 19:17:00,77.7,73.2,29.74,South,170,0.0,0.0,86,0.00,,---,0.00,VWS V14.01,2013-09-01 23:17:00,
2013-09-01 19:22:00,77.4,73.2,29.74,South,170,0.0,0.0,87,0.00,,---,0.00,VWS V14.01,2013-09-01 23:22:00,
2013-09-01 19:27:00,77.2,73.0,29.74,South,170,0.0,0.0,87,0.00,,---,0.00,VWS V14.01,2013-09-01 23:27:00,
2013-09-01 19:32:00,76.9,72.7,29.74,South,170,0.0,0.0,87,0.00,,---,0.00,VWS V14.01,2013-09-01 23:32:00,
2013-09-01 19:37:00,76.6,72.8,29.74,South,170,0.0,0.0,88,0.00,,---,0.00,VWS V14.01,2013-09-01 23:37:00,
2013-09-01 19:42:00,76.3,72.5,29.74,South,170,0.0,0.0,88,0.00,,---,0.00,VWS V14.01,2013-09-01 23:42:00,
2013-09-01 19:47:00,76.0,72.2,29.74,South,170,0.0,0.0,88,0.00,,---,0.00,VWS V14.01,2013-09-01 23:47:00,
2013-09-01 19:52:00,75.8,72.0,29.74,South,170,0.0,0.0,88,0.00,,---,0.00,VWS V14.01,2013-09-01 23:52:00,
2013-09-01 19:57:00,75.5,72.0,29.74,South,170,0.0,0.0,89,0.00,,---,0.00,VWS V14.01,2013-09-01 23:57:00,
2013-09-01 20:02:00,75.3,71.8,29.74,South,170,0.0,0.0,89,0.00,,---,0.00,VWS V14.01,2013-09-02 00:02:00,
2013-09-01 20:07:00,75.0,71.5,29.74,South,170,0.0,0.0,89,0.00,,---,0.00,VWS V14.01,2013-09-02 00:07:00,
2013-09-01 20:12:00,74.7,71.2,29.74,South,170,0.0,0.0,89,0.00,,---,0.00,VWS V14.01,2013-09-02 00:12:00,
2013-09-01 20:17:00,74.4,70.9,29.74,South,170,0.0,0.0,89,0.00,,---,0.00,VWS V14.01,2013-09-02 00:17:00,
2013-09-01 20:22:00,74.2,71.1,29.74,South,170,0.0,0.0,90,0.00,,---,0.00,VWS V14.01,2013-09-02 00:22:00,
2013-09-01 20:27:00,73.9,70.8,29.74,South,170,0.0,0.0,90,0.00,,---,0.00,VWS V14.01,2013-09-02 00:27:00,
2013-09-01 20:32:00,73.7,70.6,29.75,South,170,0.0,0.0,90,0.00,,---,0.00,VWS V14.01,2013-09-02 00:32:00,
2013-09-01 20:37:00,73.5,70.4,29.75,South,170,0.0,0.0,90,0.00,,---,0.00,VWS V14.01,2013-09-02 00:37:00,
2013-09-01 20:42:00,73.2,70.1,29.75,South,170,0.0,0.0,90,0.00,,---,0.00,VWS V14.01,2013-09-02 00:42:00,
2013-09-01 20:47:00,73.0,69.9,29.76,South,170,0.0,0.0,90,0.00,,---,0.00,VWS V14.01,2013-09-02 00:47:00,
2013-09-01 20:52:00,72.8,70.0,29.76,South,170,0.0,0.0,91,0.00,,---,0.00,VWS V14.01,2013-09-02 00:52:00,
2013-09-01 20:57:00,72.6,69.8,29.75,South,170,0.0,0.0,91,0.00,,---,0.00,VWS V14.01,2013-09-02 00:57:00,
2013-09-01 21:02:00,72.4,69.6,29.76,South,170,0.0,0.0,91,0.00,,---,0.00,VWS V14.01,2013-09-02 01:02:00,
2013-09-01 21:07:00,72.2,69.4,29.76,South,170,0.0,0.0,91,0.00,,---,0.00,VWS V14.01,2013-09-02 01:07:00,
2013-09-01 21:12:00,72.0,69.2,29.77,South,170,0.0,0.0,91,0.00,,---,0.00,VWS V14.01,2013-09-02 01:12:00,
2013-09-01 21:17:00,71.7,68.9,29.77,South,170,0.0,0.0,91,0.00,,---,0.00,VWS V14.01,2013-09-02 01:17:00,
2013-09-01 21:22:00,71.6,69.2,29.77,South,170,0.0,0.0,92,0.00,,---,0.00,VWS V14.01,2013-09-02 01:22:00,
2013-09-01 21:27:00,71.4,69.0,29.77,South,170,0.0,0.0,92,0.00,,---,0.00,VWS V14.01,2013-09-02 01:27:00,
2013-09-01 21:32:00,71.2,68.8,29.78,South,170,0.0,0.0,92,0.00,,---,0.00,VWS V14.01,2013-09-02 01:32:00,
2013-09-01 21:37:00,71.1,68.7,29.78,South,170,0.0,0.0,92,0.00,,---,0.00,VWS V14.01,2013-09-02 01:37:00,
2013-09-01 21:42:00,70.9,68.5,29.78,South,170,0.0,0.0,92,0.00,,---,0.00,VWS V14.01,2013-09-02 01:42:00,
2013-09-01 21:47:00,70.8,68.4,29.78,South,170,0.0,0.0,92,0.00,,---,0.00,VWS V14.01,2013-09-02 01:47:00,
2013-09-01 21:52:00,70.6,68.2,29.78,South,170,0.0,0.0,92,0.00,,---,0.00,VWS V14.01,2013-09-02 01:52:00,
2013-09-01 21:57:00,70.5,68.1,29.78,South,170,0.0,0.0,92,0.00,,---,0.00,VWS V14.01,2013-09-02 01:57:00,
2013-09-01 22:02:00,70.4,68.3,29.78,South,170,0.0,0.0,93,0.00,,---,0.00,VWS V14.01,2013-09-02 02:02:00,
2013-09-01 22:07:00,70.3,68.2,29.78,South,170,0.0,0.0,93,0.00,,---,0.00,VWS V14.01,2013-09-02 02:07:00,
2013-09-01 22:12:00,70.2,68.1,29.78,South,170,0.0,0.0,93,0.00,,---,0.00,VWS V14.01,2013-09-02 02:12:00,
2013-09-01 22:17:00,70.0,67.9,29.78,South,170,0.0,0.0,93,0.00,,---,0.00,VWS V14.01,2013-09-02 02:17:00,
2013-09-01 22:22:00,69.9,67.8,29.78,South,170,0.0,0.0,93,0.00,,---,0.00,VWS V14.01,2013-09-02 02:22:00,
2013-09-01 22:27:00,69.8,67.7,29.78,South,170,0.0,0.0,93,0.00,,---,0.00,VWS V14.01,2013-09-02 02:27:00,
2013-09-01 22:32:00,69.7,67.6,29.78,South,170,0.0,0.0,93,0.00,,---,0.00,VWS V14.01,2013-09-02 02:32:00,
2013-09-01 22:37:00,69.6,67.5,29.78,South,170,0.0,0.0,93,0.00,,---,0.00,VWS V14.01,2013-09-02 02:37:00,
2013-09-01 22:42:00,69.4,67.3,29.78,South,170,0.0,0.0,93,0.00,,---,0.00,VWS V14.01,2013-09-02 02:42:00,
2013-09-01 22:47:00,69.3,67.5,29.78,South,170,0.0,0.0,94,0.00,,---,0.00,VWS V14.01,2013-09-02 02:47:00,
2013-09-01 22:52:00,69.2,67.1,29.78,South,170,0.0,0.0,93,0.00,,---,0.00,VWS V14.01,2013-09-02 02:52:00,
2013-09-01 22:57:00,69.0,67.2,29.78,South,170,0.0,0.0,94,0.00,,---,0.00,VWS V14.01,2013-09-02 02:57:00,
2013-09-01 23:02:00,69.0,67.2,29.78,South,170,0.0,0.0,94,0.00,,---,0.00,VWS V14.01,2013-09-02 03:02:00,
2013-09-01 23:07:00,68.9,67.1,29.77,South,170,0.0,0.0,94,0.00,,---,0.00,VWS V14.01,2013-09-02 03:07:00,
2013-09-01 23:12:00,68.8,67.0,29.77,South,170,0.0,0.0,94,0.00,,---,0.00,VWS V14.01,2013-09-02 03:12:00,
2013-09-01 23:17:00,68.7,66.9,29.77,South,170,0.0,0.0,94,0.00,,---,0.00,VWS V14.01,2013-09-02 03:17:00,
2013-09-01 23:22:00,68.6,66.8,29.77,South,170,0.0,0.0,94,0.00,,---,0.00,VWS V14.01,2013-09-02 03:22:00,
2013-09-01 23:27:00,68.5,66.7,29.77,South,170,0.0,0.0,94,0.00,,---,0.00,VWS V14.01,2013-09-02 03:27:00,
2013-09-01 23:32:00,68.5,66.7,29.77,South,170,0.0,0.0,94,0.00,,---,0.00,VWS V14.01,2013-09-02 03:32:00,
2013-09-01 23:37:00,68.4,66.6,29.77,South,170,0.0,0.0,94,0.00,,---,0.00,VWS V14.01,2013-09-02 03:37:00,
2013-09-01 23:42:00,68.3,66.5,29.78,South,170,0.0,0.0,94,0.00,,---,0.00,VWS V14.01,2013-09-02 03:42:00,
2013-09-01 23:47:00,68.2,66.4,29.78,South,170,0.0,0.0,94,0.00,,---,0.00,VWS V14.01,2013-09-02 03:47:00,
2013-09-01 23:52:00,68.1,66.3,29.78,South,170,0.0,0.0,94,0.00,,---,0.00,VWS V14.01,2013-09-02 03:52:00,
2013-09-01 23:57:00,68.0,66.2,29.77,South,170,0.0,0.0,94,0.00,,---,0.00,VWS V14.01,2013-09-02 03:57:00,